Independence, Texas
Current Conditions -  °F | °C
As of 9:35 AM on Friday 19 Dec 2014 (Local Time) from K11R Reporting Station
Light Rain Light Rain  
Wind Chill: 52°   Ceiling: 600
Heat Index: 52°   Visibility: 10mi
Dew Point: 51°   Wind: 13mph
Humidity: 96%   Direction: 40°NE
Pressure: 30.1"   Gusts: 17mph
Location:  30.2352°N, 96.4076°W
Report Text: K11R 191535Z AUTO 04011G15KT 10SM -RA OVC006 11/11 A3010 RMK AO2 P0008 T01120106
Loading
Personal Weather Stations






























Interactive Weather Map New forecast layout! Learn more

10-Day Weather Forecast

Advertisements
Track Severe Weather on mobile